Time;durP1;ratioP1;P1;durP2;ratioP2;P2;SDS_P1;SDS_P2;PMS_P1;PMS_P2;Temp;Humidity;BMP_temperature;BMP_pressure;BME280_temperature;BME280_humidity;BME280_pressure;Samples;Min_cycle;Max_cycle;Signal;HPM_P1;HPM_P2
2022/12/02 00:00:48;;;;;;;8.50;4.72;;;5.10;99.90;;;;;;4999085;28;20120;-73
2022/12/02 00:03:18;;;;;;;11.95;5.57;;;4.90;99.90;;;;;;4996677;28;20026;-73
2022/12/02 00:05:47;;;;;;;8.50;4.72;;;5.00;99.90;;;;;;4997663;28;20042;-73
2022/12/02 00:08:23;;;;;;;8.73;4.95;;;5.00;99.90;;;;;;5004195;28;20029;-73
2022/12/02 00:10:51;;;;;;;8.32;5.15;;;5.10;99.90;;;;;;4997709;28;20034;-73
2022/12/02 00:13:37;;;;;;;7.93;4.70;;;5.10;99.90;;;;;;4991415;28;20021;-73
2022/12/02 00:16:04;;;;;;;9.80;6.03;;;5.00;99.90;;;;;;4996101;28;20111;-73
2022/12/02 00:18:30;;;;;;;9.65;5.07;;;5.10;99.90;;;;;;4997517;28;20101;-73
2022/12/02 00:20:56;;;;;;;9.52;5.43;;;5.00;99.90;;;;;;5000942;28;20029;-73
2022/12/02 00:23:22;;;;;;;9.80;5.05;;;5.00;99.90;;;;;;5001799;28;20030;-73
2022/12/02 00:25:52;;;;;;;7.80;5.05;;;5.00;99.90;;;;;;5002019;28;20042;-73
2022/12/02 00:28:18;;;;;;;10.98;5.72;;;5.00;99.90;;;;;;5002404;28;20113;-73
2022/12/02 00:30:44;;;;;;;12.05;6.00;;;5.00;99.90;;;;;;5001666;28;20497;-73
2022/12/02 00:33:10;;;;;;;11.32;5.55;;;5.00;99.90;;;;;;5005060;28;20025;-73
2022/12/02 00:35:36;;;;;;;8.00;5.60;;;5.00;99.90;;;;;;5000438;28;20109;-73
2022/12/02 00:38:03;;;;;;;11.05;6.18;;;5.00;99.90;;;;;;4997277;28;20027;-73
2022/12/02 00:40:29;;;;;;;9.25;5.60;;;5.00;99.90;;;;;;5001884;28;20037;-73
2022/12/02 00:46:30;;;;;;;10.73;6.45;;;4.90;99.90;;;;;;5003561;28;20727;-73
2022/12/02 00:48:29;;;;;;;12.23;6.55;;;4.90;99.90;;;;;;4996957;28;20488;-73
2022/12/02 00:50:55;;;;;;;10.55;6.22;;;4.90;99.90;;;;;;4999681;28;20041;-73
2022/12/02 00:53:20;;;;;;;10.90;5.82;;;4.90;99.90;;;;;;5002253;28;20030;-73
2022/12/02 00:55:46;;;;;;;10.25;6.55;;;5.00;99.90;;;;;;5003160;28;20030;-73
2022/12/02 00:58:12;;;;;;;11.60;6.38;;;5.00;99.90;;;;;;5015653;28;20044;-74
2022/12/02 01:00:37;;;;;;;16.48;6.78;;;4.90;99.90;;;;;;5006846;28;20083;-73
2022/12/02 01:03:03;;;;;;;12.15;6.68;;;4.70;99.90;;;;;;4998932;28;20026;-73
2022/12/02 01:05:29;;;;;;;10.13;5.85;;;4.60;99.90;;;;;;5002919;28;20091;-73
2022/12/02 01:07:54;;;;;;;11.40;6.60;;;4.60;99.90;;;;;;4995538;28;20042;-73
2022/12/02 01:10:20;;;;;;;11.20;6.07;;;4.70;99.90;;;;;;5001597;28;20105;-73
2022/12/02 01:12:45;;;;;;;11.45;7.00;;;4.90;99.90;;;;;;5009286;28;20044;-73
2022/12/02 01:15:11;;;;;;;8.75;5.82;;;4.80;99.90;;;;;;4997899;28;20061;-73
2022/12/02 01:17:37;;;;;;;9.45;6.15;;;4.80;99.90;;;;;;5000275;28;20125;-73
2022/12/02 01:20:03;;;;;;;9.93;5.82;;;4.90;99.90;;;;;;5010715;28;20037;-73
2022/12/02 01:22:29;;;;;;;12.48;7.15;;;4.80;99.90;;;;;;5008305;28;20103;-73
2022/12/02 01:24:55;;;;;;;10.82;6.68;;;4.70;99.90;;;;;;4999607;28;20033;-73
2022/12/02 01:27:21;;;;;;;13.35;7.70;;;4.70;99.90;;;;;;5008114;28;20037;-73
2022/12/02 01:29:47;;;;;;;12.05;7.50;;;4.70;99.90;;;;;;5002990;28;20524;-73
2022/12/02 01:32:13;;;;;;;11.15;7.00;;;4.70;99.90;;;;;;5010093;28;20034;-73
2022/12/02 01:34:40;;;;;;;11.85;7.18;;;4.80;99.90;;;;;;5001241;28;20488;-73
2022/12/02 01:37:06;;;;;;;12.00;7.00;;;4.80;99.90;;;;;;5007160;28;20177;-73
2022/12/02 01:39:31;;;;;;;10.45;6.38;;;4.80;99.90;;;;;;5003846;28;20125;-72
2022/12/02 01:41:58;;;;;;;11.20;7.20;;;4.80;99.90;;;;;;5004134;28;20073;-73
2022/12/02 01:44:24;;;;;;;10.10;6.93;;;4.80;99.90;;;;;;5007662;28;20088;-72
2022/12/02 01:46:51;;;;;;;10.80;6.35;;;4.80;99.90;;;;;;5000426;28;20119;-73
2022/12/02 01:49:17;;;;;;;13.27;7.22;;;4.80;99.90;;;;;;5005562;28;20033;-73
2022/12/02 01:51:42;;;;;;;13.50;7.28;;;4.80;99.90;;;;;;5005495;28;20034;-73
2022/12/02 01:54:08;;;;;;;14.02;7.45;;;4.70;99.90;;;;;;5007320;28;20503;-73
2022/12/02 01:56:34;;;;;;;15.77;8.52;;;4.80;99.90;;;;;;4998359;28;20042;-73
2022/12/02 01:59:00;;;;;;;14.77;7.32;;;4.70;99.90;;;;;;5002811;28;20065;-73
2022/12/02 02:01:29;;;;;;;9.52;6.55;;;4.80;99.90;;;;;;5004737;28;20031;-73
2022/12/02 02:03:55;;;;;;;10.55;7.18;;;4.90;99.90;;;;;;4998461;28;20129;-72
2022/12/02 02:06:23;;;;;;;11.35;7.88;;;4.90;99.90;;;;;;5006578;28;20099;-73
2022/12/02 02:08:49;;;;;;;11.48;7.25;;;4.90;99.90;;;;;;5001047;28;20108;-73
2022/12/02 02:11:15;;;;;;;12.73;7.60;;;4.80;99.90;;;;;;5003346;28;20037;-73
2022/12/02 02:13:41;;;;;;;15.43;7.72;;;4.80;99.90;;;;;;5008566;28;20172;-73
2022/12/02 02:16:07;;;;;;;11.57;6.88;;;4.70;99.90;;;;;;5003937;28;20117;-73
2022/12/02 02:18:33;;;;;;;11.55;6.32;;;4.70;99.90;;;;;;5004091;28;20117;-73
2022/12/02 02:21:00;;;;;;;10.02;7.25;;;4.70;99.90;;;;;;5002914;28;20069;-73
2022/12/02 02:23:27;;;;;;;13.63;7.30;;;4.80;99.90;;;;;;5001887;28;20096;-73
2022/12/02 02:25:56;;;;;;;10.20;6.63;;;4.90;99.90;;;;;;5000532;28;20034;-73
2022/12/02 02:28:23;;;;;;;10.38;6.80;;;4.80;99.90;;;;;;4998521;28;20113;-73
2022/12/02 02:30:52;;;;;;;12.52;6.88;;;4.80;99.90;;;;;;5003301;28;20075;-73
2022/12/02 02:33:18;;;;;;;9.57;5.93;;;4.80;99.90;;;;;;5000295;28;20030;-73
2022/12/02 02:35:46;;;;;;;12.65;6.95;;;4.80;99.90;;;;;;4999836;28;20064;-73
2022/12/02 02:38:15;;;;;;;11.77;7.70;;;4.80;99.90;;;;;;5006817;28;20038;-73
2022/12/02 02:40:41;;;;;;;12.40;7.57;;;4.70;99.90;;;;;;5004746;28;20041;-73
2022/12/02 02:43:09;;;;;;;12.95;8.38;;;4.70;99.90;;;;;;5005629;28;20037;-73
2022/12/02 02:45:37;;;;;;;10.02;6.40;;;4.80;99.90;;;;;;5000674;28;20041;-73
2022/12/02 02:48:05;;;;;;;11.80;7.78;;;4.80;99.90;;;;;;5008262;28;20073;-73
2022/12/02 02:50:32;;;;;;;10.25;6.57;;;4.80;99.90;;;;;;5000387;28;20501;-73
2022/12/02 02:53:00;;;;;;;11.75;7.05;;;4.80;99.90;;;;;;5000428;28;20033;-72
2022/12/02 02:55:26;;;;;;;11.77;6.78;;;4.80;99.90;;;;;;5001594;28;20157;-73
2022/12/02 02:57:52;;;;;;;11.40;7.22;;;4.70;99.90;;;;;;4995909;28;20188;-73
2022/12/02 03:00:19;;;;;;;12.73;8.40;;;4.70;99.90;;;;;;5002017;28;20607;-73
2022/12/02 03:02:48;;;;;;;12.15;6.90;;;4.80;99.90;;;;;;4999985;28;20029;-72
2022/12/02 03:05:14;;;;;;;13.45;7.78;;;4.80;99.90;;;;;;5007511;28;20511;-73
2022/12/02 03:07:40;;;;;;;12.63;7.45;;;4.80;99.90;;;;;;5005775;28;20034;-73
2022/12/02 03:10:08;;;;;;;11.88;7.50;;;4.80;99.90;;;;;;5000952;28;20030;-73
2022/12/02 03:12:33;;;;;;;13.95;7.75;;;4.80;99.90;;;;;;5001609;28;20030;-73
2022/12/02 03:15:02;;;;;;;11.88;7.32;;;4.80;99.90;;;;;;5003366;28;20030;-73
2022/12/02 03:17:27;;;;;;;12.45;7.15;;;4.80;99.90;;;;;;5004683;28;20041;-73
2022/12/02 03:19:53;;;;;;;10.55;6.20;;;4.90;99.90;;;;;;5001167;28;20489;-72
2022/12/02 03:22:19;;;;;;;12.75;7.32;;;4.80;99.90;;;;;;5007967;28;20057;-73
2022/12/02 03:24:45;;;;;;;10.77;6.68;;;4.80;99.90;;;;;;5004595;28;20028;-73
2022/12/02 03:27:12;;;;;;;12.68;7.75;;;4.80;99.90;;;;;;5007744;28;20029;-73
2022/12/02 03:29:39;;;;;;;12.85;7.75;;;4.90;99.90;;;;;;4997248;28;20018;-73
2022/12/02 03:32:05;;;;;;;11.23;6.80;;;4.90;99.90;;;;;;4998805;28;20101;-73
2022/12/02 03:34:31;;;;;;;12.63;8.00;;;4.80;99.90;;;;;;4995385;28;20026;-73
2022/12/02 03:36:58;;;;;;;12.23;7.13;;;4.90;99.90;;;;;;5003622;28;20022;-73
2022/12/02 03:39:24;;;;;;;12.85;7.78;;;4.80;99.90;;;;;;4998696;28;20034;-73
2022/12/02 03:41:50;;;;;;;16.38;8.05;;;4.80;99.90;;;;;;5001971;28;20109;-73
2022/12/02 03:44:16;;;;;;;11.10;7.50;;;4.80;99.90;;;;;;5002952;28;20477;-73
2022/12/02 03:46:43;;;;;;;14.32;7.38;;;4.90;99.90;;;;;;5002561;28;20042;-73
2022/12/02 03:49:10;;;;;;;12.45;7.32;;;4.90;99.90;;;;;;4999194;28;20036;-73
2022/12/02 03:51:35;;;;;;;13.05;8.00;;;4.90;99.90;;;;;;5001476;28;20027;-73
2022/12/02 03:54:01;;;;;;;11.75;7.03;;;4.80;99.90;;;;;;5006408;28;20041;-73
2022/12/02 03:56:27;;;;;;;11.70;6.88;;;4.80;99.90;;;;;;5003705;28;20050;-73
2022/12/02 03:58:53;;;;;;;10.55;6.32;;;4.80;99.90;;;;;;5003655;28;20041;-73
2022/12/02 04:01:21;;;;;;;12.07;7.30;;;4.70;99.90;;;;;;4995803;28;20072;-72
2022/12/02 04:03:47;;;;;;;13.13;7.60;;;4.80;99.90;;;;;;4990860;28;20034;-72
2022/12/02 04:06:13;;;;;;;12.98;7.38;;;4.90;99.90;;;;;;4994329;28;20432;-72
2022/12/02 04:08:39;;;;;;;12.35;7.57;;;5.00;99.90;;;;;;4991533;28;20034;-72
2022/12/02 04:11:05;;;;;;;13.25;7.57;;;5.00;99.90;;;;;;4993220;28;20081;-72
2022/12/02 04:13:31;;;;;;;11.75;7.43;;;4.90;99.90;;;;;;4991344;28;20041;-72
2022/12/02 04:15:57;;;;;;;11.65;6.82;;;4.90;99.90;;;;;;4999779;28;20038;-72
2022/12/02 04:18:22;;;;;;;9.95;6.60;;;4.80;99.90;;;;;;4994857;28;20041;-72
2022/12/02 04:20:48;;;;;;;12.07;7.32;;;4.80;99.90;;;;;;5000210;28;20025;-72
2022/12/02 04:23:14;;;;;;;13.63;7.18;;;4.80;99.90;;;;;;4998016;28;20080;-72
2022/12/02 04:25:39;;;;;;;13.48;7.55;;;4.80;99.90;;;;;;4993072;28;20060;-72
2022/12/02 04:28:05;;;;;;;10.30;6.13;;;4.70;99.90;;;;;;4992018;28;20026;-72
2022/12/02 04:30:31;;;;;;;12.60;8.20;;;4.70;99.90;;;;;;4995737;28;20026;-72
2022/12/02 04:32:57;;;;;;;11.18;6.53;;;4.70;99.90;;;;;;4992357;28;20119;-72
2022/12/02 04:35:23;;;;;;;11.80;7.35;;;4.60;99.90;;;;;;4993474;28;20469;-71
2022/12/02 04:37:50;;;;;;;11.40;7.65;;;4.60;99.90;;;;;;4995294;28;20045;-72
2022/12/02 04:40:16;;;;;;;14.23;7.97;;;4.60;99.90;;;;;;4993223;28;20433;-72
2022/12/02 04:42:42;;;;;;;12.82;7.50;;;4.70;99.90;;;;;;4998656;28;20057;-71
2022/12/02 04:45:09;;;;;;;11.05;7.15;;;4.70;99.90;;;;;;4998278;28;20065;-72
2022/12/02 04:47:34;;;;;;;16.05;7.78;;;4.70;99.90;;;;;;4998151;28;20026;-72
2022/12/02 04:50:00;;;;;;;12.30;7.55;;;4.70;99.90;;;;;;4995003;28;20443;-71
2022/12/02 04:52:26;;;;;;;15.70;8.48;;;4.70;99.90;;;;;;4993350;28;20026;-72
2022/12/02 04:54:52;;;;;;;13.88;8.18;;;4.70;99.90;;;;;;5000799;28;20092;-72
2022/12/02 04:57:17;;;;;;;14.52;8.27;;;4.70;99.90;;;;;;4996340;28;20033;-72
2022/12/02 04:59:43;;;;;;;11.02;7.35;;;4.60;99.90;;;;;;4994404;28;20037;-72
2022/12/02 05:02:08;;;;;;;11.88;8.32;;;4.70;99.90;;;;;;4993513;28;20062;-72
2022/12/02 05:04:34;;;;;;;12.30;7.82;;;4.70;99.90;;;;;;4986840;28;20032;-72
2022/12/02 05:07:00;;;;;;;13.70;7.70;;;4.70;99.90;;;;;;4989898;28;20053;-72
2022/12/02 05:09:25;;;;;;;14.23;7.57;;;4.70;99.90;;;;;;4991870;28;20099;-72
2022/12/02 05:11:51;;;;;;;14.30;8.10;;;4.60;99.90;;;;;;5003730;28;20030;-72
2022/12/02 05:14:17;;;;;;;29.77;20.55;;;4.60;99.90;;;;;;4995518;28;20036;-72
2022/12/02 05:16:42;;;;;;;24.75;15.02;;;4.60;99.90;;;;;;4991143;28;20034;-72
2022/12/02 05:19:08;;;;;;;39.03;22.55;;;4.60;99.90;;;;;;4985806;28;20031;-72
2022/12/02 05:21:33;;;;;;;17.90;10.82;;;4.60;99.90;;;;;;4995541;28;20050;-72
2022/12/02 05:23:59;;;;;;;15.23;9.40;;;4.70;99.90;;;;;;4992879;28;20034;-72
2022/12/02 05:26:25;;;;;;;14.93;7.85;;;4.60;99.90;;;;;;4993366;28;20042;-72
2022/12/02 05:28:50;;;;;;;14.25;7.53;;;4.60;99.90;;;;;;4996431;28;20029;-72
2022/12/02 05:31:16;;;;;;;14.15;9.15;;;4.60;99.90;;;;;;4993275;28;20029;-72
2022/12/02 05:33:41;;;;;;;12.85;8.13;;;4.50;99.90;;;;;;4991927;28;20029;-72
2022/12/02 05:36:11;;;;;;;14.60;7.90;;;4.60;99.90;;;;;;4993904;28;20033;-72
2022/12/02 05:38:40;;;;;;;16.73;8.13;;;4.70;99.90;;;;;;4988096;28;20515;-72
2022/12/02 05:41:06;;;;;;;12.65;8.05;;;4.60;99.90;;;;;;4997902;28;20479;-72
2022/12/02 05:43:38;;;;;;;13.00;7.07;;;4.60;99.90;;;;;;4997399;28;20034;-72
2022/12/02 05:46:25;;;;;;;12.45;7.78;;;4.60;99.90;;;;;;4998969;28;20606;-72
2022/12/02 05:48:51;;;;;;;14.38;8.80;;;4.40;99.90;;;;;;4992021;28;20394;-72
2022/12/02 05:51:20;;;;;;;13.45;8.55;;;4.50;99.90;;;;;;5001088;28;20113;-72
2022/12/02 05:53:49;;;;;;;20.58;12.25;;;4.50;99.90;;;;;;4994277;28;20084;-72
2022/12/02 05:56:24;;;;;;;16.88;9.48;;;4.50;99.90;;;;;;4994897;28;20449;-72
2022/12/02 05:58:50;;;;;;;23.98;11.15;;;4.40;99.90;;;;;;4994687;28;20033;-72
2022/12/02 06:01:22;;;;;;;14.48;8.95;;;4.50;99.90;;;;;;4998979;28;20041;-72
2022/12/02 06:03:49;;;;;;;14.88;9.55;;;4.50;99.90;;;;;;4995079;28;20460;-72
2022/12/02 06:06:16;;;;;;;15.07;9.60;;;4.60;99.90;;;;;;4997287;28;20040;-72
2022/12/02 06:08:42;;;;;;;16.65;10.00;;;4.60;99.90;;;;;;4995002;28;20981;-72
2022/12/02 06:11:33;;;;;;;18.05;10.32;;;4.60;99.90;;;;;;4995258;28;20109;-72
2022/12/02 06:14:05;;;;;;;14.65;9.25;;;4.60;99.90;;;;;;5001999;28;20022;-72
2022/12/02 06:16:31;;;;;;;15.73;9.35;;;4.60;99.90;;;;;;4999453;28;20034;-72
2022/12/02 06:19:00;;;;;;;14.52;8.73;;;4.60;99.90;;;;;;4996622;28;20040;-72
2022/12/02 06:21:26;;;;;;;15.23;8.93;;;4.60;99.90;;;;;;4991660;28;20408;-72
2022/12/02 06:23:56;;;;;;;15.02;8.38;;;4.60;99.90;;;;;;4996561;28;20125;-72
2022/12/02 06:26:22;;;;;;;13.82;8.23;;;4.50;99.90;;;;;;4997753;28;20354;-72
2022/12/02 06:28:58;;;;;;;14.45;9.30;;;4.40;99.90;;;;;;4995758;28;20030;-72
2022/12/02 06:31:38;;;;;;;16.25;9.60;;;4.40;99.90;;;;;;4993660;28;20791;-72
2022/12/02 06:34:19;;;;;;;16.00;10.85;;;4.40;99.90;;;;;;4988500;28;20049;-72
2022/12/02 06:36:45;;;;;;;13.93;9.15;;;4.40;99.90;;;;;;4992942;28;20025;-72
2022/12/02 06:39:20;;;;;;;16.55;8.93;;;4.40;99.90;;;;;;4990550;28;20040;-72
2022/12/02 06:41:47;;;;;;;13.93;8.13;;;4.40;99.90;;;;;;4994352;28;20396;-72
2022/12/02 06:47:31;;;;;;;13.10;8.52;;;4.50;99.90;;;;;;4989222;28;20140;-72
2022/12/02 06:50:06;;;;;;;12.10;7.57;;;4.60;99.90;;;;;;5002148;28;20037;-72
2022/12/02 06:52:43;;;;;;;13.00;7.80;;;4.50;99.90;;;;;;4988763;28;20037;-72
2022/12/02 06:55:24;;;;;;;18.77;9.10;;;4.50;99.90;;;;;;4992624;28;20408;-72
2022/12/02 06:57:50;;;;;;;15.38;8.95;;;4.50;99.90;;;;;;4998032;28;20518;-72
2022/12/02 07:00:16;;;;;;;13.18;7.80;;;4.50;99.90;;;;;;4998196;28;20026;-72
2022/12/02 07:02:43;;;;;;;14.93;9.18;;;4.60;99.90;;;;;;4997372;28;20185;-72
2022/12/02 07:05:15;;;;;;;16.52;9.40;;;4.60;99.90;;;;;;4991175;28;20045;-72
2022/12/02 07:07:41;;;;;;;15.00;9.27;;;4.70;99.90;;;;;;4996565;28;20357;-72
2022/12/02 07:10:18;;;;;;;13.88;8.20;;;4.70;99.90;;;;;;4995024;28;20088;-72
2022/12/02 07:12:45;;;;;;;13.48;8.55;;;4.70;99.90;;;;;;4992699;28;20499;-72
2022/12/02 07:15:32;;;;;;;13.38;9.10;;;4.70;99.90;;;;;;4995638;28;20036;-72
2022/12/02 07:18:11;;;;;;;13.55;8.85;;;4.70;99.90;;;;;;4998861;28;20053;-72
2022/12/02 07:20:38;;;;;;;16.95;9.60;;;4.70;99.90;;;;;;4997323;28;20033;-72
2022/12/02 07:23:13;;;;;;;14.98;9.30;;;4.70;99.90;;;;;;4995587;28;20416;-72
2022/12/02 07:25:46;;;;;;;15.98;8.80;;;4.80;99.90;;;;;;4994164;28;20034;-72
2022/12/02 07:28:34;;;;;;;19.60;10.65;;;4.80;99.90;;;;;;4993888;28;20033;-72
2022/12/02 07:31:38;;;;;;;17.67;10.52;;;4.90;99.90;;;;;;4998389;28;20117;-72
2022/12/02 07:34:03;;;;;;;17.60;10.82;;;4.90;99.90;;;;;;4993202;28;20132;-72
2022/12/02 07:36:29;;;;;;;18.27;10.68;;;4.90;99.90;;;;;;4997038;28;20033;-72
2022/12/02 07:38:54;;;;;;;18.42;11.45;;;4.90;99.90;;;;;;5000696;28;20104;-72
2022/12/02 07:41:20;;;;;;;15.15;9.80;;;4.90;99.90;;;;;;4996007;28;20033;-72
2022/12/02 07:43:46;;;;;;;13.60;8.18;;;4.80;99.90;;;;;;4996912;28;20041;-72
2022/12/02 07:46:11;;;;;;;17.13;10.10;;;4.70;99.90;;;;;;4993318;28;20038;-72
2022/12/02 07:48:37;;;;;;;19.02;11.88;;;4.70;99.90;;;;;;4997891;28;20049;-72
2022/12/02 07:51:03;;;;;;;15.48;10.23;;;4.80;99.90;;;;;;4994702;28;20026;-72
2022/12/02 07:53:28;;;;;;;16.85;9.95;;;4.70;99.90;;;;;;4990306;28;20040;-72
2022/12/02 07:55:54;;;;;;;17.15;9.70;;;4.70;99.90;;;;;;4999173;28;20049;-72
2022/12/02 07:58:20;;;;;;;15.90;10.13;;;4.80;99.90;;;;;;4988783;28;20034;-72
2022/12/02 08:00:46;;;;;;;14.90;9.75;;;4.80;99.90;;;;;;4996799;28;20030;-72
2022/12/02 08:03:11;;;;;;;15.07;9.80;;;4.90;99.90;;;;;;4991721;28;20418;-72
2022/12/02 08:05:37;;;;;;;13.52;9.32;;;4.90;99.90;;;;;;4995598;28;20045;-72
2022/12/02 08:08:03;;;;;;;12.88;8.90;;;5.00;99.90;;;;;;4998837;28;20776;-72
2022/12/02 08:10:28;;;;;;;14.45;9.35;;;5.00;99.90;;;;;;4991797;28;20033;-72
2022/12/02 08:12:54;;;;;;;13.55;8.57;;;5.10;99.90;;;;;;4989627;28;20440;-72
2022/12/02 08:15:20;;;;;;;12.48;8.50;;;5.10;99.90;;;;;;5000990;28;20031;-72
2022/12/02 08:17:45;;;;;;;12.43;8.65;;;5.20;99.90;;;;;;4992528;28;20572;-72
2022/12/02 08:20:12;;;;;;;15.35;9.27;;;5.10;99.90;;;;;;4999531;28;20033;-72
2022/12/02 08:22:38;;;;;;;14.60;9.63;;;5.10;99.90;;;;;;4993233;28;20128;-74
2022/12/02 08:25:04;;;;;;;13.25;9.30;;;5.00;99.90;;;;;;4991868;28;20599;-73
2022/12/02 08:27:30;;;;;;;13.32;8.65;;;5.00;99.90;;;;;;4989831;28;20042;-73
2022/12/02 08:29:56;;;;;;;16.38;9.85;;;5.00;99.90;;;;;;4996851;28;20026;-73
2022/12/02 08:32:22;;;;;;;13.32;8.45;;;5.00;99.90;;;;;;5001014;28;20037;-73
2022/12/02 08:34:47;;;;;;;16.13;9.85;;;5.00;99.90;;;;;;4992823;28;20608;-72
2022/12/02 08:37:14;;;;;;;15.52;9.43;;;5.10;99.90;;;;;;4991678;28;20105;-72
2022/12/02 08:39:40;;;;;;;16.10;9.73;;;5.20;99.90;;;;;;4989784;28;20384;-73
2022/12/02 08:42:06;;;;;;;20.33;9.18;;;5.20;99.90;;;;;;4995936;28;20084;-73
2022/12/02 08:44:32;;;;;;;15.50;9.32;;;5.20;99.90;;;;;;4995542;28;20037;-73
2022/12/02 08:46:57;;;;;;;16.40;9.65;;;5.30;99.90;;;;;;4998564;28;20508;-73
2022/12/02 08:49:24;;;;;;;14.98;9.45;;;5.40;99.90;;;;;;4999700;28;20022;-73
2022/12/02 08:51:50;;;;;;;13.93;8.43;;;5.40;99.90;;;;;;4995254;28;20041;-73
2022/12/02 08:54:16;;;;;;;14.15;9.45;;;5.40;99.90;;;;;;4995388;28;20113;-72
2022/12/02 08:56:43;;;;;;;15.85;9.68;;;5.50;99.90;;;;;;4997272;28;20061;-73
2022/12/02 08:59:08;;;;;;;14.55;9.07;;;5.30;99.90;;;;;;4998478;28;20073;-73
2022/12/02 09:01:34;;;;;;;15.00;8.93;;;5.50;99.90;;;;;;5001157;28;20054;-73
2022/12/02 09:04:00;;;;;;;13.25;8.00;;;5.40;99.90;;;;;;5000287;28;20026;-73
2022/12/02 09:06:25;;;;;;;13.52;9.07;;;5.50;99.90;;;;;;4999407;28;20041;-73
2022/12/02 09:08:52;;;;;;;13.55;8.43;;;5.50;99.90;;;;;;4999232;28;20040;-73
2022/12/02 09:11:18;;;;;;;12.57;7.70;;;5.50;99.90;;;;;;5000211;28;20034;-73
2022/12/02 09:13:44;;;;;;;13.48;7.88;;;5.50;99.90;;;;;;5004556;28;20107;-73
2022/12/02 09:16:10;;;;;;;11.57;7.65;;;5.40;99.90;;;;;;5004148;28;20472;-73
2022/12/02 09:18:35;;;;;;;11.23;7.47;;;5.40;99.90;;;;;;5003660;28;20148;-73
2022/12/02 09:21:01;;;;;;;13.80;7.82;;;5.30;99.90;;;;;;5001700;28;20033;-73
2022/12/02 09:23:28;;;;;;;15.13;7.10;;;5.40;99.90;;;;;;5007415;28;20038;-74
2022/12/02 09:25:53;;;;;;;12.55;7.20;;;5.40;99.90;;;;;;5003444;28;20100;-73
2022/12/02 09:28:21;;;;;;;15.60;8.57;;;5.50;99.90;;;;;;5005479;28;20022;-73
2022/12/02 09:30:47;;;;;;;13.13;8.48;;;5.50;99.90;;;;;;5003745;28;20032;-72
2022/12/02 09:33:13;;;;;;;14.75;7.30;;;5.50;99.90;;;;;;5007748;28;20029;-72
2022/12/02 09:35:38;;;;;;;13.38;7.93;;;5.50;99.90;;;;;;5005847;28;20395;-72
2022/12/02 09:38:04;;;;;;;13.98;8.55;;;5.60;99.90;;;;;;5004240;28;20036;-72
2022/12/02 09:40:31;;;;;;;11.77;7.63;;;5.70;99.90;;;;;;5005259;28;20528;-72
2022/12/02 09:42:57;;;;;;;17.42;9.32;;;5.90;99.90;;;;;;5006974;28;20030;-73
2022/12/02 09:45:23;;;;;;;31.45;22.17;;;5.90;99.90;;;;;;5004939;28;20115;-73
2022/12/02 09:47:49;;;;;;;18.73;12.07;;;5.90;99.90;;;;;;5008534;28;20026;-72
2022/12/02 09:50:16;;;;;;;18.67;11.38;;;5.90;99.90;;;;;;5004198;28;20428;-72
2022/12/02 09:52:42;;;;;;;13.75;10.57;;;5.90;99.90;;;;;;5005071;28;20073;-72
2022/12/02 09:55:17;;;;;;;13.32;7.95;;;6.00;99.90;;;;;;5002265;28;20077;-72
2022/12/02 09:57:43;;;;;;;13.07;7.68;;;5.90;99.90;;;;;;5003311;28;20045;-72
2022/12/02 10:00:20;;;;;;;11.07;7.03;;;5.80;99.90;;;;;;5007070;28;20105;-72
2022/12/02 10:02:51;;;;;;;11.20;7.57;;;5.90;99.90;;;;;;4998663;28;20362;-73
2022/12/02 10:05:28;;;;;;;11.57;7.53;;;5.90;99.90;;;;;;4999452;28;20096;-73
2022/12/02 10:07:56;;;;;;;12.50;7.75;;;5.90;99.90;;;;;;4998563;28;20038;-73
2022/12/02 10:10:26;;;;;;;13.77;8.05;;;5.90;99.90;;;;;;5004523;28;20473;-73
2022/12/02 10:12:53;;;;;;;13.48;8.10;;;6.00;99.90;;;;;;5001226;28;20026;-73
2022/12/02 10:15:25;;;;;;;12.70;7.68;;;6.10;99.90;;;;;;4999188;28;20465;-73
2022/12/02 10:17:51;;;;;;;12.77;7.60;;;6.10;99.90;;;;;;5000779;28;20037;-73
2022/12/02 10:20:22;;;;;;;15.10;8.60;;;6.00;99.90;;;;;;5001359;28;20057;-73
2022/12/02 10:23:11;;;;;;;14.68;8.55;;;6.00;99.90;;;;;;5000443;28;20133;-73
2022/12/02 10:25:39;;;;;;;12.02;7.32;;;6.00;99.90;;;;;;5000130;28;20057;-73
2022/12/02 10:28:20;;;;;;;13.15;8.73;;;6.10;99.90;;;;;;4999476;28;20030;-72
2022/12/02 10:30:51;;;;;;;11.82;8.02;;;6.10;99.90;;;;;;5005085;28;20018;-73
2022/12/02 10:33:16;;;;;;;12.68;7.72;;;6.10;99.90;;;;;;5000545;28;20904;-73
2022/12/02 10:35:48;;;;;;;14.25;8.85;;;6.10;99.90;;;;;;4993210;28;20034;-73
2022/12/02 10:38:33;;;;;;;10.75;7.25;;;6.10;99.90;;;;;;4991443;28;20092;-72
2022/12/02 10:41:14;;;;;;;13.05;8.10;;;6.20;99.90;;;;;;4996823;28;20034;-71
2022/12/02 10:44:11;;;;;;;14.13;7.70;;;6.20;99.90;;;;;;5003101;28;20560;-74
2022/12/02 10:46:37;;;;;;;13.50;7.82;;;6.20;99.90;;;;;;5003703;28;20044;-74
2022/12/02 10:49:33;;;;;;;17.10;9.68;;;6.10;99.90;;;;;;5007581;28;20026;-73
2022/12/02 10:52:07;;;;;;;14.43;7.68;;;6.00;99.90;;;;;;5005481;28;20030;-73
2022/12/02 10:54:33;;;;;;;12.73;8.40;;;6.10;99.90;;;;;;5004565;28;20030;-74
2022/12/02 10:57:01;;;;;;;13.55;9.55;;;6.20;99.90;;;;;;5004703;28;20614;-74
2022/12/02 10:59:28;;;;;;;13.73;8.80;;;6.20;99.90;;;;;;5004789;28;20029;-72
2022/12/02 11:01:54;;;;;;;11.18;7.47;;;6.20;99.90;;;;;;5004648;28;20065;-73
2022/12/02 11:04:20;;;;;;;13.73;8.68;;;6.10;99.90;;;;;;5002815;28;20110;-72
2022/12/02 11:06:46;;;;;;;11.30;8.07;;;6.10;99.90;;;;;;4996764;28;20034;-74
2022/12/02 11:09:18;;;;;;;13.20;8.48;;;6.20;99.90;;;;;;5002971;28;20683;-76
2022/12/02 11:11:45;;;;;;;12.75;7.88;;;6.30;99.90;;;;;;5001924;28;20026;-74
2022/12/02 11:14:32;;;;;;;12.10;8.45;;;6.20;99.90;;;;;;4997952;28;20030;-75
2022/12/02 11:17:09;;;;;;;12.73;8.20;;;6.20;99.90;;;;;;5003008;28;20026;-72
2022/12/02 11:19:36;;;;;;;13.43;7.43;;;6.20;99.90;;;;;;4998542;28;20112;-75
2022/12/02 11:22:03;;;;;;;13.27;8.40;;;6.10;99.90;;;;;;4998707;28;20050;-73
2022/12/02 11:24:28;;;;;;;13.43;7.85;;;6.20;99.90;;;;;;4990863;28;20038;-74
2022/12/02 11:27:01;;;;;;;12.40;7.93;;;6.30;99.90;;;;;;5004415;28;20056;-73
2022/12/02 11:29:31;;;;;;;12.25;8.18;;;6.30;99.90;;;;;;4999954;28;20026;-75
2022/12/02 11:32:17;;;;;;;14.90;9.63;;;6.30;99.90;;;;;;4999504;28;20640;-74
2022/12/02 11:34:46;;;;;;;15.07;9.00;;;6.40;99.90;;;;;;4996698;28;20047;-75
2022/12/02 11:37:29;;;;;;;14.93;8.20;;;6.50;99.90;;;;;;4997766;28;20035;-74
2022/12/02 11:40:10;;;;;;;15.27;9.30;;;6.60;99.90;;;;;;4994407;28;20035;-75
2022/12/02 11:42:40;;;;;;;14.65;8.43;;;6.30;99.90;;;;;;4998346;28;20493;-74
2022/12/02 11:45:14;;;;;;;14.13;8.10;;;6.30;99.90;;;;;;5003112;28;20022;-74
2022/12/02 11:47:45;;;;;;;13.85;8.75;;;6.30;99.90;;;;;;4994904;28;20069;-74
2022/12/02 11:50:13;;;;;;;12.70;8.80;;;6.40;99.90;;;;;;5004042;28;20021;-74
2022/12/02 11:52:42;;;;;;;12.98;8.43;;;6.40;99.90;;;;;;4999612;28;20101;-74
2022/12/02 11:55:16;;;;;;;11.25;7.72;;;6.40;99.90;;;;;;4998825;28;20421;-75
2022/12/02 11:57:48;;;;;;;16.50;9.27;;;6.40;99.90;;;;;;4996726;28;20502;-75
2022/12/02 12:00:19;;;;;;;13.60;8.80;;;6.50;99.90;;;;;;5000444;28;20490;-75
2022/12/02 12:02:45;;;;;;;15.55;8.35;;;6.40;99.90;;;;;;5003947;28;20465;-75
2022/12/02 12:05:10;;;;;;;14.38;9.13;;;6.40;99.90;;;;;;4996752;28;20036;-75
2022/12/02 12:07:44;;;;;;;15.18;8.93;;;6.30;99.90;;;;;;4994250;28;20105;-75
2022/12/02 12:10:42;;;;;;;20.88;11.10;;;6.20;99.90;;;;;;5002852;28;20464;-74
2022/12/02 12:13:13;;;;;;;13.13;8.60;;;6.30;99.90;;;;;;4986138;28;20046;-74
2022/12/02 12:15:49;;;;;;;13.63;9.05;;;6.20;99.90;;;;;;4995352;28;20034;-74
2022/12/02 12:18:52;;;;;;;23.95;8.77;;;6.10;99.90;;;;;;4995755;28;20456;-74
2022/12/02 12:21:29;;;;;;;13.27;8.43;;;6.10;99.90;;;;;;4989413;28;20060;-75
2022/12/02 12:24:24;;;;;;;14.02;9.02;;;6.20;99.90;;;;;;4998746;28;20416;-75
2022/12/02 12:27:02;;;;;;;14.35;8.60;;;6.20;99.90;;;;;;4992590;28;20034;-74
2022/12/02 12:29:32;;;;;;;15.27;9.25;;;6.20;99.90;;;;;;4995192;28;20231;-74
2022/12/02 12:31:59;;;;;;;15.23;9.70;;;6.20;99.90;;;;;;4989707;28;20415;-75
2022/12/02 12:34:25;;;;;;;13.10;8.13;;;6.20;99.90;;;;;;4994251;28;20037;-77
2022/12/02 12:36:50;;;;;;;15.23;9.60;;;6.20;99.90;;;;;;4996199;28;20026;-75
2022/12/02 12:39:17;;;;;;;14.45;9.50;;;6.30;99.90;;;;;;4992254;28;20037;-76
2022/12/02 12:41:43;;;;;;;16.42;9.20;;;6.40;99.90;;;;;;5001452;28;20574;-76
2022/12/02 12:44:09;;;;;;;14.18;8.95;;;6.40;99.90;;;;;;4990661;28;20084;-76
2022/12/02 12:46:35;;;;;;;13.70;9.05;;;6.40;99.90;;;;;;4999944;28;20046;-76
2022/12/02 12:49:00;;;;;;;12.45;8.55;;;6.50;99.90;;;;;;4999686;28;20029;-76
2022/12/02 12:51:26;;;;;;;18.23;9.02;;;6.40;99.90;;;;;;4993244;28;20101;-76
2022/12/02 12:53:52;;;;;;;16.67;11.20;;;6.40;99.90;;;;;;4990955;28;20026;-76
2022/12/02 12:56:18;;;;;;;18.75;9.18;;;6.50;99.90;;;;;;4989183;28;20619;-76
2022/12/02 12:58:43;;;;;;;18.75;10.57;;;6.50;99.90;;;;;;4990882;28;20029;-76